sensor_id;sensor_type;location;lat;lon;timestamp;P1;durP1;ratioP1;P2;durP2;ratioP2
56399;SDS011;42298;53.638;9.876;2024-03-06T00:01:31;18.97;;;12.33;;
56399;SDS011;42298;53.638;9.876;2024-03-06T00:03:56;19.57;;;11.47;;
56399;SDS011;42298;53.638;9.876;2024-03-06T00:06:22;19.70;;;11.10;;
56399;SDS011;42298;53.638;9.876;2024-03-06T00:08:47;18.10;;;11.80;;
56399;SDS011;42298;53.638;9.876;2024-03-06T00:11:13;17.40;;;11.80;;
56399;SDS011;42298;53.638;9.876;2024-03-06T00:13:38;20.37;;;10.93;;
56399;SDS011;42298;53.638;9.876;2024-03-06T00:16:04;18.17;;;11.27;;
56399;SDS011;42298;53.638;9.876;2024-03-06T00:18:29;18.10;;;11.80;;
56399;SDS011;42298;53.638;9.876;2024-03-06T00:20:54;17.00;;;10.97;;
56399;SDS011;42298;53.638;9.876;2024-03-06T00:23:19;16.37;;;10.70;;
56399;SDS011;42298;53.638;9.876;2024-03-06T00:25:45;17.10;;;11.87;;
56399;SDS011;42298;53.638;9.876;2024-03-06T00:28:10;17.27;;;11.63;;
56399;SDS011;42298;53.638;9.876;2024-03-06T00:30:35;18.17;;;11.40;;
56399;SDS011;42298;53.638;9.876;2024-03-06T00:33:01;17.57;;;10.87;;
56399;SDS011;42298;53.638;9.876;2024-03-06T00:35:26;15.67;;;10.77;;
56399;SDS011;42298;53.638;9.876;2024-03-06T00:37:51;18.87;;;11.13;;
56399;SDS011;42298;53.638;9.876;2024-03-06T00:40:18;20.30;;;12.33;;
56399;SDS011;42298;53.638;9.876;2024-03-06T00:42:43;18.37;;;10.87;;
56399;SDS011;42298;53.638;9.876;2024-03-06T00:45:08;17.60;;;10.40;;
56399;SDS011;42298;53.638;9.876;2024-03-06T00:47:34;18.90;;;11.33;;
56399;SDS011;42298;53.638;9.876;2024-03-06T00:50:00;18.13;;;10.67;;
56399;SDS011;42298;53.638;9.876;2024-03-06T00:52:25;16.77;;;10.30;;
56399;SDS011;42298;53.638;9.876;2024-03-06T00:54:50;18.20;;;11.20;;
56399;SDS011;42298;53.638;9.876;2024-03-06T00:57:15;18.27;;;11.10;;
56399;SDS011;42298;53.638;9.876;2024-03-06T00:59:41;17.23;;;11.63;;
56399;SDS011;42298;53.638;9.876;2024-03-06T01:02:06;18.23;;;11.43;;
56399;SDS011;42298;53.638;9.876;2024-03-06T01:04:31;20.53;;;11.23;;
56399;SDS011;42298;53.638;9.876;2024-03-06T01:06:57;17.67;;;10.97;;
56399;SDS011;42298;53.638;9.876;2024-03-06T01:09:23;16.53;;;10.93;;
56399;SDS011;42298;53.638;9.876;2024-03-06T01:11:49;19.17;;;11.90;;
56399;SDS011;42298;53.638;9.876;2024-03-06T01:14:15;19.60;;;11.50;;
56399;SDS011;42298;53.638;9.876;2024-03-06T01:16:41;17.43;;;11.20;;
56399;SDS011;42298;53.638;9.876;2024-03-06T01:19:06;16.17;;;11.03;;
56399;SDS011;42298;53.638;9.876;2024-03-06T01:21:32;17.80;;;10.47;;
56399;SDS011;42298;53.638;9.876;2024-03-06T01:23:59;17.20;;;10.83;;
56399;SDS011;42298;53.638;9.876;2024-03-06T01:26:28;18.57;;;10.00;;
56399;SDS011;42298;53.638;9.876;2024-03-06T01:28:53;17.87;;;10.87;;
56399;SDS011;42298;53.638;9.876;2024-03-06T01:31:19;18.47;;;11.00;;
56399;SDS011;42298;53.638;9.876;2024-03-06T01:33:44;15.93;;;10.73;;
56399;SDS011;42298;53.638;9.876;2024-03-06T01:36:09;16.23;;;10.37;;
56399;SDS011;42298;53.638;9.876;2024-03-06T01:38:34;16.77;;;9.53;;
56399;SDS011;42298;53.638;9.876;2024-03-06T01:41:00;15.30;;;9.77;;
56399;SDS011;42298;53.638;9.876;2024-03-06T01:43:25;19.00;;;10.67;;
56399;SDS011;42298;53.638;9.876;2024-03-06T01:45:52;17.77;;;10.63;;
56399;SDS011;42298;53.638;9.876;2024-03-06T01:48:21;19.20;;;10.90;;
56399;SDS011;42298;53.638;9.876;2024-03-06T01:50:51;18.60;;;10.73;;
56399;SDS011;42298;53.638;9.876;2024-03-06T01:53:19;17.63;;;10.23;;
56399;SDS011;42298;53.638;9.876;2024-03-06T01:55:45;15.70;;;10.23;;
56399;SDS011;42298;53.638;9.876;2024-03-06T01:58:10;18.33;;;9.90;;
56399;SDS011;42298;53.638;9.876;2024-03-06T02:00:36;17.87;;;10.23;;
56399;SDS011;42298;53.638;9.876;2024-03-06T02:03:02;17.57;;;9.37;;
56399;SDS011;42298;53.638;9.876;2024-03-06T02:05:28;17.43;;;9.80;;
56399;SDS011;42298;53.638;9.876;2024-03-06T02:07:56;16.37;;;9.57;;
56399;SDS011;42298;53.638;9.876;2024-03-06T02:10:23;15.10;;;9.40;;
56399;SDS011;42298;53.638;9.876;2024-03-06T02:12:48;14.83;;;9.53;;
56399;SDS011;42298;53.638;9.876;2024-03-06T02:15:14;15.67;;;9.27;;
56399;SDS011;42298;53.638;9.876;2024-03-06T02:17:40;16.97;;;9.03;;
56399;SDS011;42298;53.638;9.876;2024-03-06T02:20:07;15.47;;;8.77;;
56399;SDS011;42298;53.638;9.876;2024-03-06T02:22:34;17.37;;;8.93;;
56399;SDS011;42298;53.638;9.876;2024-03-06T02:25:00;16.23;;;8.50;;
56399;SDS011;42298;53.638;9.876;2024-03-06T02:27:25;14.57;;;8.10;;
56399;SDS011;42298;53.638;9.876;2024-03-06T02:29:50;15.00;;;8.20;;
56399;SDS011;42298;53.638;9.876;2024-03-06T02:32:15;17.53;;;8.47;;
56399;SDS011;42298;53.638;9.876;2024-03-06T02:34:43;16.80;;;9.10;;
56399;SDS011;42298;53.638;9.876;2024-03-06T02:37:08;16.17;;;8.37;;
56399;SDS011;42298;53.638;9.876;2024-03-06T02:39:34;13.43;;;8.07;;
56399;SDS011;42298;53.638;9.876;2024-03-06T02:42:00;13.00;;;8.03;;
56399;SDS011;42298;53.638;9.876;2024-03-06T02:44:25;13.87;;;7.93;;
56399;SDS011;42298;53.638;9.876;2024-03-06T02:46:50;16.27;;;8.03;;
56399;SDS011;42298;53.638;9.876;2024-03-06T02:49:16;13.40;;;7.53;;
56399;SDS011;42298;53.638;9.876;2024-03-06T02:51:43;14.57;;;8.13;;
56399;SDS011;42298;53.638;9.876;2024-03-06T02:54:08;17.67;;;7.97;;
56399;SDS011;42298;53.638;9.876;2024-03-06T02:56:33;15.03;;;8.20;;
56399;SDS011;42298;53.638;9.876;2024-03-06T02:58:59;13.13;;;7.50;;
56399;SDS011;42298;53.638;9.876;2024-03-06T03:01:27;14.93;;;8.10;;
56399;SDS011;42298;53.638;9.876;2024-03-06T03:03:53;13.00;;;7.63;;
56399;SDS011;42298;53.638;9.876;2024-03-06T03:06:18;14.83;;;8.23;;
56399;SDS011;42298;53.638;9.876;2024-03-06T03:08:44;14.63;;;7.47;;
56399;SDS011;42298;53.638;9.876;2024-03-06T03:11:09;13.90;;;6.77;;
56399;SDS011;42298;53.638;9.876;2024-03-06T03:13:35;13.47;;;7.30;;
56399;SDS011;42298;53.638;9.876;2024-03-06T03:16:00;13.40;;;7.50;;
56399;SDS011;42298;53.638;9.876;2024-03-06T03:18:27;14.70;;;7.40;;
56399;SDS011;42298;53.638;9.876;2024-03-06T03:20:52;18.10;;;7.87;;
56399;SDS011;42298;53.638;9.876;2024-03-06T03:23:18;14.17;;;7.53;;
56399;SDS011;42298;53.638;9.876;2024-03-06T03:25:47;16.33;;;7.43;;
56399;SDS011;42298;53.638;9.876;2024-03-06T03:28:15;14.77;;;7.07;;
56399;SDS011;42298;53.638;9.876;2024-03-06T03:30:42;15.80;;;7.50;;
56399;SDS011;42298;53.638;9.876;2024-03-06T03:33:09;14.00;;;7.63;;
56399;SDS011;42298;53.638;9.876;2024-03-06T03:35:34;15.90;;;7.63;;
56399;SDS011;42298;53.638;9.876;2024-03-06T03:38:00;14.63;;;7.70;;
56399;SDS011;42298;53.638;9.876;2024-03-06T03:40:25;13.47;;;7.63;;
56399;SDS011;42298;53.638;9.876;2024-03-06T03:42:50;17.13;;;8.43;;
56399;SDS011;42298;53.638;9.876;2024-03-06T03:45:16;13.80;;;7.43;;
56399;SDS011;42298;53.638;9.876;2024-03-06T03:47:41;13.90;;;7.83;;
56399;SDS011;42298;53.638;9.876;2024-03-06T03:50:07;14.67;;;7.73;;
56399;SDS011;42298;53.638;9.876;2024-03-06T03:52:33;13.93;;;7.50;;
56399;SDS011;42298;53.638;9.876;2024-03-06T03:54:59;14.43;;;7.83;;
56399;SDS011;42298;53.638;9.876;2024-03-06T03:57:24;14.17;;;7.07;;
56399;SDS011;42298;53.638;9.876;2024-03-06T03:59:49;13.13;;;7.50;;
56399;SDS011;42298;53.638;9.876;2024-03-06T04:02:16;13.93;;;8.23;;
56399;SDS011;42298;53.638;9.876;2024-03-06T04:04:41;17.50;;;8.27;;
56399;SDS011;42298;53.638;9.876;2024-03-06T04:07:06;13.50;;;8.23;;
56399;SDS011;42298;53.638;9.876;2024-03-06T04:09:32;15.70;;;8.63;;
56399;SDS011;42298;53.638;9.876;2024-03-06T04:12:01;13.17;;;7.73;;
56399;SDS011;42298;53.638;9.876;2024-03-06T04:14:26;14.83;;;8.00;;
56399;SDS011;42298;53.638;9.876;2024-03-06T04:16:52;14.00;;;7.50;;
56399;SDS011;42298;53.638;9.876;2024-03-06T04:19:17;12.73;;;7.33;;
56399;SDS011;42298;53.638;9.876;2024-03-06T04:21:43;14.07;;;7.40;;
56399;SDS011;42298;53.638;9.876;2024-03-06T04:24:09;14.27;;;7.40;;
56399;SDS011;42298;53.638;9.876;2024-03-06T04:26:35;13.70;;;8.03;;
56399;SDS011;42298;53.638;9.876;2024-03-06T04:29:00;13.00;;;7.70;;
56399;SDS011;42298;53.638;9.876;2024-03-06T04:31:25;12.63;;;7.40;;
56399;SDS011;42298;53.638;9.876;2024-03-06T04:33:51;14.50;;;7.90;;
56399;SDS011;42298;53.638;9.876;2024-03-06T04:36:16;14.33;;;8.73;;
56399;SDS011;42298;53.638;9.876;2024-03-06T04:38:42;15.83;;;8.70;;
56399;SDS011;42298;53.638;9.876;2024-03-06T04:41:07;16.40;;;8.10;;
56399;SDS011;42298;53.638;9.876;2024-03-06T04:43:33;14.37;;;7.57;;
56399;SDS011;42298;53.638;9.876;2024-03-06T04:45:59;13.57;;;7.50;;
56399;SDS011;42298;53.638;9.876;2024-03-06T04:48:24;13.03;;;7.10;;
56399;SDS011;42298;53.638;9.876;2024-03-06T04:50:50;12.60;;;6.83;;
56399;SDS011;42298;53.638;9.876;2024-03-06T04:53:16;12.10;;;7.47;;
56399;SDS011;42298;53.638;9.876;2024-03-06T04:55:41;15.83;;;8.00;;
56399;SDS011;42298;53.638;9.876;2024-03-06T04:58:06;15.13;;;7.90;;
56399;SDS011;42298;53.638;9.876;2024-03-06T05:00:32;13.90;;;7.13;;
56399;SDS011;42298;53.638;9.876;2024-03-06T05:02:57;13.20;;;7.40;;
56399;SDS011;42298;53.638;9.876;2024-03-06T05:05:23;13.90;;;7.63;;
56399;SDS011;42298;53.638;9.876;2024-03-06T05:07:49;12.97;;;6.97;;
56399;SDS011;42298;53.638;9.876;2024-03-06T05:10:15;12.87;;;7.30;;
56399;SDS011;42298;53.638;9.876;2024-03-06T05:12:43;13.27;;;7.10;;
56399;SDS011;42298;53.638;9.876;2024-03-06T05:15:09;13.10;;;7.60;;
56399;SDS011;42298;53.638;9.876;2024-03-06T05:17:35;15.10;;;8.32;;
56399;SDS011;42298;53.638;9.876;2024-03-06T05:20:01;12.57;;;8.17;;
56399;SDS011;42298;53.638;9.876;2024-03-06T05:22:29;13.17;;;7.17;;
56399;SDS011;42298;53.638;9.876;2024-03-06T05:24:54;13.17;;;7.20;;
56399;SDS011;42298;53.638;9.876;2024-03-06T05:27:20;11.27;;;7.30;;
56399;SDS011;42298;53.638;9.876;2024-03-06T05:29:45;13.23;;;6.97;;
56399;SDS011;42298;53.638;9.876;2024-03-06T05:32:11;14.93;;;7.63;;
56399;SDS011;42298;53.638;9.876;2024-03-06T05:34:36;12.60;;;7.47;;
56399;SDS011;42298;53.638;9.876;2024-03-06T05:37:01;11.93;;;6.70;;
56399;SDS011;42298;53.638;9.876;2024-03-06T05:39:29;13.13;;;7.17;;
56399;SDS011;42298;53.638;9.876;2024-03-06T05:41:55;14.30;;;6.87;;
56399;SDS011;42298;53.638;9.876;2024-03-06T05:44:20;12.88;;;7.22;;
56399;SDS011;42298;53.638;9.876;2024-03-06T05:46:45;13.97;;;7.87;;
56399;SDS011;42298;53.638;9.876;2024-03-06T05:49:11;13.77;;;7.63;;
56399;SDS011;42298;53.638;9.876;2024-03-06T05:51:37;12.20;;;7.37;;
56399;SDS011;42298;53.638;9.876;2024-03-06T05:54:03;15.83;;;8.40;;
56399;SDS011;42298;53.638;9.876;2024-03-06T05:56:29;12.07;;;7.50;;
56399;SDS011;42298;53.638;9.876;2024-03-06T05:58:55;12.63;;;6.93;;
56399;SDS011;42298;53.638;9.876;2024-03-06T06:01:20;13.03;;;7.50;;
56399;SDS011;42298;53.638;9.876;2024-03-06T06:03:46;13.47;;;7.30;;
56399;SDS011;42298;53.638;9.876;2024-03-06T06:06:14;12.67;;;7.80;;
56399;SDS011;42298;53.638;9.876;2024-03-06T06:08:44;12.90;;;7.80;;
56399;SDS011;42298;53.638;9.876;2024-03-06T06:11:10;12.20;;;7.43;;
56399;SDS011;42298;53.638;9.876;2024-03-06T06:13:35;10.93;;;6.57;;
56399;SDS011;42298;53.638;9.876;2024-03-06T06:16:01;10.07;;;6.00;;
56399;SDS011;42298;53.638;9.876;2024-03-06T06:18:27;12.70;;;7.17;;
56399;SDS011;42298;53.638;9.876;2024-03-06T06:20:53;12.97;;;7.60;;
56399;SDS011;42298;53.638;9.876;2024-03-06T06:23:18;16.30;;;8.10;;
56399;SDS011;42298;53.638;9.876;2024-03-06T06:25:44;12.87;;;7.60;;
56399;SDS011;42298;53.638;9.876;2024-03-06T06:28:09;14.70;;;7.67;;
56399;SDS011;42298;53.638;9.876;2024-03-06T06:30:35;14.47;;;8.60;;
56399;SDS011;42298;53.638;9.876;2024-03-06T06:33:01;14.30;;;8.77;;
56399;SDS011;42298;53.638;9.876;2024-03-06T06:35:26;14.30;;;8.63;;
56399;SDS011;42298;53.638;9.876;2024-03-06T06:37:52;13.03;;;7.20;;
56399;SDS011;42298;53.638;9.876;2024-03-06T06:40:18;12.50;;;7.53;;
56399;SDS011;42298;53.638;9.876;2024-03-06T06:42:45;14.87;;;8.10;;
56399;SDS011;42298;53.638;9.876;2024-03-06T06:45:14;13.75;;;8.05;;
56399;SDS011;42298;53.638;9.876;2024-03-06T06:47:43;13.93;;;9.52;;
56399;SDS011;42298;53.638;9.876;2024-03-06T06:50:09;13.37;;;9.30;;
56399;SDS011;42298;53.638;9.876;2024-03-06T06:52:35;12.77;;;8.07;;
56399;SDS011;42298;53.638;9.876;2024-03-06T06:55:01;14.87;;;9.33;;
56399;SDS011;42298;53.638;9.876;2024-03-06T06:57:26;14.70;;;8.73;;
56399;SDS011;42298;53.638;9.876;2024-03-06T06:59:52;15.50;;;8.70;;
56399;SDS011;42298;53.638;9.876;2024-03-06T07:02:17;12.77;;;7.87;;
56399;SDS011;42298;53.638;9.876;2024-03-06T07:04:43;14.90;;;8.80;;
56399;SDS011;42298;53.638;9.876;2024-03-06T07:07:08;13.97;;;9.60;;
56399;SDS011;42298;53.638;9.876;2024-03-06T07:09:34;14.70;;;8.60;;
56399;SDS011;42298;53.638;9.876;2024-03-06T07:11:59;13.60;;;8.53;;
56399;SDS011;42298;53.638;9.876;2024-03-06T07:14:25;12.80;;;8.17;;
56399;SDS011;42298;53.638;9.876;2024-03-06T07:16:50;15.67;;;8.80;;
56399;SDS011;42298;53.638;9.876;2024-03-06T07:19:15;15.43;;;8.90;;
56399;SDS011;42298;53.638;9.876;2024-03-06T07:21:41;17.13;;;9.63;;
56399;SDS011;42298;53.638;9.876;2024-03-06T07:24:07;14.20;;;8.53;;
56399;SDS011;42298;53.638;9.876;2024-03-06T07:26:32;15.23;;;8.73;;
56399;SDS011;42298;53.638;9.876;2024-03-06T07:28:58;14.47;;;8.67;;
56399;SDS011;42298;53.638;9.876;2024-03-06T07:31:23;15.10;;;9.80;;
56399;SDS011;42298;53.638;9.876;2024-03-06T07:33:49;14.30;;;9.27;;
56399;SDS011;42298;53.638;9.876;2024-03-06T07:36:15;15.03;;;9.03;;
56399;SDS011;42298;53.638;9.876;2024-03-06T07:38:41;14.87;;;8.97;;
56399;SDS011;42298;53.638;9.876;2024-03-06T07:41:07;12.90;;;8.43;;
56399;SDS011;42298;53.638;9.876;2024-03-06T07:43:32;13.07;;;8.40;;
56399;SDS011;42298;53.638;9.876;2024-03-06T07:45:57;14.33;;;8.13;;
56399;SDS011;42298;53.638;9.876;2024-03-06T07:48:23;14.15;;;9.60;;
56399;SDS011;42298;53.638;9.876;2024-03-06T07:50:49;14.87;;;8.80;;
56399;SDS011;42298;53.638;9.876;2024-03-06T07:53:14;12.90;;;8.00;;
56399;SDS011;42298;53.638;9.876;2024-03-06T07:55:41;13.50;;;9.03;;
56399;SDS011;42298;53.638;9.876;2024-03-06T07:58:06;14.00;;;7.80;;
56399;SDS011;42298;53.638;9.876;2024-03-06T08:00:33;13.03;;;7.83;;
56399;SDS011;42298;53.638;9.876;2024-03-06T08:02:59;11.80;;;7.33;;
56399;SDS011;42298;53.638;9.876;2024-03-06T08:05:25;12.73;;;7.83;;
56399;SDS011;42298;53.638;9.876;2024-03-06T08:07:51;13.00;;;8.10;;
56399;SDS011;42298;53.638;9.876;2024-03-06T08:10:16;13.23;;;8.10;;
56399;SDS011;42298;53.638;9.876;2024-03-06T08:12:43;12.17;;;7.37;;
56399;SDS011;42298;53.638;9.876;2024-03-06T08:15:11;13.53;;;7.57;;
56399;SDS011;42298;53.638;9.876;2024-03-06T08:17:41;12.70;;;7.67;;
56399;SDS011;42298;53.638;9.876;2024-03-06T08:20:08;14.57;;;7.03;;
56399;SDS011;42298;53.638;9.876;2024-03-06T08:22:34;13.70;;;7.00;;
56399;SDS011;42298;53.638;9.876;2024-03-06T08:25:04;12.30;;;7.00;;
56399;SDS011;42298;53.638;9.876;2024-03-06T08:27:34;13.20;;;6.90;;
56399;SDS011;42298;53.638;9.876;2024-03-06T08:30:00;11.67;;;7.03;;
56399;SDS011;42298;53.638;9.876;2024-03-06T08:32:26;11.10;;;6.63;;
56399;SDS011;42298;53.638;9.876;2024-03-06T08:34:52;12.67;;;7.23;;
56399;SDS011;42298;53.638;9.876;2024-03-06T08:37:17;11.47;;;6.60;;
56399;SDS011;42298;53.638;9.876;2024-03-06T08:39:43;11.67;;;7.10;;
56399;SDS011;42298;53.638;9.876;2024-03-06T08:42:08;11.43;;;6.20;;
56399;SDS011;42298;53.638;9.876;2024-03-06T08:44:34;12.53;;;7.00;;
56399;SDS011;42298;53.638;9.876;2024-03-06T08:46:59;12.73;;;6.90;;
56399;SDS011;42298;53.638;9.876;2024-03-06T08:49:24;11.40;;;7.10;;
56399;SDS011;42298;53.638;9.876;2024-03-06T08:51:49;10.50;;;6.60;;
56399;SDS011;42298;53.638;9.876;2024-03-06T08:54:15;11.40;;;6.77;;
56399;SDS011;42298;53.638;9.876;2024-03-06T08:56:42;13.03;;;6.90;;
56399;SDS011;42298;53.638;9.876;2024-03-06T08:59:08;12.00;;;6.70;;
56399;SDS011;42298;53.638;9.876;2024-03-06T09:01:34;11.07;;;6.17;;
56399;SDS011;42298;53.638;9.876;2024-03-06T09:03:59;12.33;;;7.33;;
56399;SDS011;42298;53.638;9.876;2024-03-06T09:06:25;11.50;;;7.30;;
56399;SDS011;42298;53.638;9.876;2024-03-06T09:08:50;11.03;;;6.83;;
56399;SDS011;42298;53.638;9.876;2024-03-06T09:11:15;12.43;;;7.07;;
56399;SDS011;42298;53.638;9.876;2024-03-06T09:13:41;11.17;;;6.53;;
56399;SDS011;42298;53.638;9.876;2024-03-06T09:16:06;12.30;;;7.20;;
56399;SDS011;42298;53.638;9.876;2024-03-06T09:18:31;13.07;;;7.13;;
56399;SDS011;42298;53.638;9.876;2024-03-06T09:20:57;11.37;;;6.67;;
56399;SDS011;42298;53.638;9.876;2024-03-06T09:23:22;12.33;;;7.23;;
56399;SDS011;42298;53.638;9.876;2024-03-06T09:25:47;12.50;;;7.87;;
56399;SDS011;42298;53.638;9.876;2024-03-06T09:28:13;15.83;;;7.40;;
56399;SDS011;42298;53.638;9.876;2024-03-06T09:30:38;11.47;;;7.33;;
56399;SDS011;42298;53.638;9.876;2024-03-06T09:33:04;11.63;;;6.90;;
56399;SDS011;42298;53.638;9.876;2024-03-06T09:35:29;13.23;;;7.27;;
56399;SDS011;42298;53.638;9.876;2024-03-06T09:37:54;13.07;;;7.20;;
56399;SDS011;42298;53.638;9.876;2024-03-06T09:40:23;13.17;;;6.90;;
56399;SDS011;42298;53.638;9.876;2024-03-06T09:42:49;13.00;;;7.07;;
56399;SDS011;42298;53.638;9.876;2024-03-06T09:45:15;13.53;;;7.10;;
56399;SDS011;42298;53.638;9.876;2024-03-06T09:47:41;12.83;;;7.03;;
56399;SDS011;42298;53.638;9.876;2024-03-06T09:50:08;13.00;;;7.33;;
56399;SDS011;42298;53.638;9.876;2024-03-06T09:52:35;13.40;;;8.00;;
56399;SDS011;42298;53.638;9.876;2024-03-06T09:55:01;12.43;;;7.77;;
56399;SDS011;42298;53.638;9.876;2024-03-06T09:57:27;13.83;;;7.40;;
56399;SDS011;42298;53.638;9.876;2024-03-06T09:59:52;11.70;;;7.80;;
56399;SDS011;42298;53.638;9.876;2024-03-06T10:02:41;12.87;;;8.40;;
56399;SDS011;42298;53.638;9.876;2024-03-06T10:05:06;12.47;;;7.60;;
56399;SDS011;42298;53.638;9.876;2024-03-06T10:07:49;12.80;;;8.03;;
56399;SDS011;42298;53.638;9.876;2024-03-06T10:10:16;13.33;;;8.00;;
56399;SDS011;42298;53.638;9.876;2024-03-06T10:12:42;12.73;;;8.20;;
56399;SDS011;42298;53.638;9.876;2024-03-06T10:15:08;14.23;;;7.60;;
56399;SDS011;42298;53.638;9.876;2024-03-06T10:17:37;13.13;;;7.97;;
56399;SDS011;42298;53.638;9.876;2024-03-06T10:20:16;13.90;;;8.13;;
56399;SDS011;42298;53.638;9.876;2024-03-06T10:22:52;13.47;;;7.97;;
56399;SDS011;42298;53.638;9.876;2024-03-06T10:25:21;13.23;;;8.57;;
56399;SDS011;42298;53.638;9.876;2024-03-06T10:30:47;12.33;;;7.30;;
56399;SDS011;42298;53.638;9.876;2024-03-06T10:33:13;14.33;;;8.23;;
56399;SDS011;42298;53.638;9.876;2024-03-06T10:35:40;12.80;;;8.13;;
56399;SDS011;42298;53.638;9.876;2024-03-06T10:38:07;12.43;;;7.97;;
56399;SDS011;42298;53.638;9.876;2024-03-06T10:40:35;14.07;;;8.63;;
56399;SDS011;42298;53.638;9.876;2024-03-06T10:43:02;15.27;;;9.03;;
56399;SDS011;42298;53.638;9.876;2024-03-06T10:48:11;14.10;;;9.93;;
56399;SDS011;42298;53.638;9.876;2024-03-06T10:50:39;13.90;;;9.20;;
56399;SDS011;42298;53.638;9.876;2024-03-06T10:53:12;15.13;;;8.43;;
56399;SDS011;42298;53.638;9.876;2024-03-06T10:55:39;13.83;;;8.87;;
56399;SDS011;42298;53.638;9.876;2024-03-06T10:58:06;15.00;;;9.10;;
56399;SDS011;42298;53.638;9.876;2024-03-06T11:00:40;14.07;;;8.53;;
56399;SDS011;42298;53.638;9.876;2024-03-06T11:03:07;14.77;;;9.50;;
56399;SDS011;42298;53.638;9.876;2024-03-06T11:05:36;15.43;;;9.50;;
56399;SDS011;42298;53.638;9.876;2024-03-06T11:08:05;13.30;;;8.30;;
56399;SDS011;42298;53.638;9.876;2024-03-06T11:10:38;12.47;;;8.00;;
56399;SDS011;42298;53.638;9.876;2024-03-06T11:13:20;13.97;;;8.27;;
56399;SDS011;42298;53.638;9.876;2024-03-06T11:15:51;13.57;;;7.80;;
56399;SDS011;42298;53.638;9.876;2024-03-06T11:23:32;15.93;;;9.50;;
56399;SDS011;42298;53.638;9.876;2024-03-06T11:26:04;15.63;;;9.10;;
56399;SDS011;42298;53.638;9.876;2024-03-06T11:30:57;13.00;;;8.07;;
56399;SDS011;42298;53.638;9.876;2024-03-06T11:33:28;13.93;;;8.63;;
56399;SDS011;42298;53.638;9.876;2024-03-06T11:38:50;17.90;;;8.93;;
56399;SDS011;42298;53.638;9.876;2024-03-06T11:41:16;13.40;;;8.00;;
56399;SDS011;42298;53.638;9.876;2024-03-06T11:43:42;14.00;;;9.48;;
56399;SDS011;42298;53.638;9.876;2024-03-06T11:46:08;14.00;;;8.83;;
56399;SDS011;42298;53.638;9.876;2024-03-06T11:48:35;14.60;;;9.20;;
56399;SDS011;42298;53.638;9.876;2024-03-06T11:51:01;14.80;;;9.17;;
56399;SDS011;42298;53.638;9.876;2024-03-06T11:53:30;15.70;;;9.20;;
56399;SDS011;42298;53.638;9.876;2024-03-06T11:55:58;14.87;;;8.87;;
56399;SDS011;42298;53.638;9.876;2024-03-06T11:58:23;15.93;;;9.97;;
56399;SDS011;42298;53.638;9.876;2024-03-06T12:00:48;16.23;;;9.90;;
56399;SDS011;42298;53.638;9.876;2024-03-06T12:03:14;15.67;;;9.50;;
56399;SDS011;42298;53.638;9.876;2024-03-06T12:05:39;13.93;;;9.03;;
56399;SDS011;42298;53.638;9.876;2024-03-06T12:08:06;16.63;;;10.43;;
56399;SDS011;42298;53.638;9.876;2024-03-06T12:10:38;14.13;;;9.33;;
56399;SDS011;42298;53.638;9.876;2024-03-06T12:13:04;14.85;;;9.82;;
56399;SDS011;42298;53.638;9.876;2024-03-06T12:15:30;14.90;;;8.50;;
56399;SDS011;42298;53.638;9.876;2024-03-06T12:17:55;15.30;;;9.33;;
56399;SDS011;42298;53.638;9.876;2024-03-06T12:20:21;14.90;;;9.90;;
56399;SDS011;42298;53.638;9.876;2024-03-06T12:22:50;16.13;;;9.37;;
56399;SDS011;42298;53.638;9.876;2024-03-06T12:25:22;16.73;;;10.60;;
56399;SDS011;42298;53.638;9.876;2024-03-06T12:27:49;18.27;;;9.77;;
56399;SDS011;42298;53.638;9.876;2024-03-06T12:30:21;15.40;;;10.03;;
56399;SDS011;42298;53.638;9.876;2024-03-06T12:35:26;14.70;;;9.63;;
56399;SDS011;42298;53.638;9.876;2024-03-06T12:37:51;14.17;;;9.67;;
56399;SDS011;42298;53.638;9.876;2024-03-06T12:40:18;13.73;;;9.07;;
56399;SDS011;42298;53.638;9.876;2024-03-06T12:42:44;18.33;;;10.10;;
56399;SDS011;42298;53.638;9.876;2024-03-06T12:45:11;13.33;;;8.87;;
56399;SDS011;42298;53.638;9.876;2024-03-06T12:47:40;14.13;;;8.13;;
56399;SDS011;42298;53.638;9.876;2024-03-06T12:50:06;14.40;;;8.17;;
56399;SDS011;42298;53.638;9.876;2024-03-06T12:52:33;12.47;;;7.63;;
56399;SDS011;42298;53.638;9.876;2024-03-06T12:54:59;14.50;;;7.67;;
56399;SDS011;42298;53.638;9.876;2024-03-06T12:57:24;14.30;;;8.20;;
56399;SDS011;42298;53.638;9.876;2024-03-06T12:59:50;13.23;;;8.40;;
56399;SDS011;42298;53.638;9.876;2024-03-06T13:02:15;13.30;;;8.30;;
56399;SDS011;42298;53.638;9.876;2024-03-06T13:04:40;16.20;;;9.40;;
56399;SDS011;42298;53.638;9.876;2024-03-06T13:07:06;13.50;;;8.67;;
56399;SDS011;42298;53.638;9.876;2024-03-06T13:09:31;15.17;;;8.90;;
56399;SDS011;42298;53.638;9.876;2024-03-06T13:11:56;12.77;;;8.40;;
56399;SDS011;42298;53.638;9.876;2024-03-06T13:14:22;15.37;;;8.70;;
56399;SDS011;42298;53.638;9.876;2024-03-06T13:16:47;13.13;;;8.97;;
56399;SDS011;42298;53.638;9.876;2024-03-06T13:19:12;14.33;;;9.17;;
56399;SDS011;42298;53.638;9.876;2024-03-06T13:21:37;14.17;;;8.70;;
56399;SDS011;42298;53.638;9.876;2024-03-06T13:24:03;16.33;;;8.50;;
56399;SDS011;42298;53.638;9.876;2024-03-06T13:26:28;16.27;;;9.23;;
56399;SDS011;42298;53.638;9.876;2024-03-06T13:28:53;14.43;;;8.43;;
56399;SDS011;42298;53.638;9.876;2024-03-06T13:31:19;13.47;;;8.37;;
56399;SDS011;42298;53.638;9.876;2024-03-06T13:33:44;13.77;;;9.40;;
56399;SDS011;42298;53.638;9.876;2024-03-06T13:36:09;15.13;;;8.30;;
56399;SDS011;42298;53.638;9.876;2024-03-06T13:38:35;15.13;;;8.73;;
56399;SDS011;42298;53.638;9.876;2024-03-06T13:41:00;13.93;;;9.30;;
56399;SDS011;42298;53.638;9.876;2024-03-06T13:43:27;13.67;;;8.20;;
56399;SDS011;42298;53.638;9.876;2024-03-06T13:45:53;13.10;;;7.40;;
56399;SDS011;42298;53.638;9.876;2024-03-06T13:48:19;13.00;;;7.67;;
56399;SDS011;42298;53.638;9.876;2024-03-06T13:50:45;11.87;;;7.20;;
56399;SDS011;42298;53.638;9.876;2024-03-06T13:53:11;12.80;;;7.73;;
56399;SDS011;42298;53.638;9.876;2024-03-06T13:55:37;13.00;;;8.10;;
56399;SDS011;42298;53.638;9.876;2024-03-06T13:58:02;12.70;;;7.80;;
56399;SDS011;42298;53.638;9.876;2024-03-06T14:00:29;12.30;;;8.07;;
56399;SDS011;42298;53.638;9.876;2024-03-06T14:02:54;16.23;;;7.60;;
56399;SDS011;42298;53.638;9.876;2024-03-06T14:05:20;12.67;;;7.37;;
56399;SDS011;42298;53.638;9.876;2024-03-06T14:07:50;11.83;;;7.40;;
56399;SDS011;42298;53.638;9.876;2024-03-06T14:10:16;13.13;;;7.60;;
56399;SDS011;42298;53.638;9.876;2024-03-06T14:12:44;13.50;;;6.93;;
56399;SDS011;42298;53.638;9.876;2024-03-06T14:15:09;14.23;;;7.67;;
56399;SDS011;42298;53.638;9.876;2024-03-06T14:17:38;11.93;;;7.47;;
56399;SDS011;42298;53.638;9.876;2024-03-06T14:20:03;13.87;;;7.23;;
56399;SDS011;42298;53.638;9.876;2024-03-06T14:22:29;12.67;;;7.83;;
56399;SDS011;42298;53.638;9.876;2024-03-06T14:25:00;13.20;;;8.40;;
56399;SDS011;42298;53.638;9.876;2024-03-06T14:27:26;14.57;;;7.97;;
56399;SDS011;42298;53.638;9.876;2024-03-06T14:29:51;15.73;;;7.57;;
56399;SDS011;42298;53.638;9.876;2024-03-06T14:32:19;13.37;;;8.03;;
56399;SDS011;42298;53.638;9.876;2024-03-06T14:34:44;13.47;;;7.90;;
56399;SDS011;42298;53.638;9.876;2024-03-06T14:37:10;13.17;;;7.67;;
56399;SDS011;42298;53.638;9.876;2024-03-06T14:39:36;13.10;;;7.77;;
56399;SDS011;42298;53.638;9.876;2024-03-06T14:42:01;10.97;;;7.40;;
56399;SDS011;42298;53.638;9.876;2024-03-06T14:44:29;12.80;;;7.60;;
56399;SDS011;42298;53.638;9.876;2024-03-06T14:46:54;12.97;;;7.20;;